sensor_id;sensor_type;location;lat;lon;timestamp;pressure;altitude;pressure_sealevel;temperature;humidity
21545;BME280;10933;50.754;11.508;2022-09-24T00:01:38;99427.91;;;6.76;100.00
21545;BME280;10933;50.754;11.508;2022-09-24T00:04:10;99427.31;;;6.74;100.00
21545;BME280;10933;50.754;11.508;2022-09-24T00:06:41;99418.56;;;6.79;100.00
21545;BME280;10933;50.754;11.508;2022-09-24T00:09:08;99423.00;;;6.73;100.00
21545;BME280;10933;50.754;11.508;2022-09-24T00:11:39;99429.75;;;6.76;100.00
21545;BME280;10933;50.754;11.508;2022-09-24T00:14:06;99429.41;;;6.84;100.00
21545;BME280;10933;50.754;11.508;2022-09-24T00:16:33;99428.16;;;6.87;100.00
21545;BME280;10933;50.754;11.508;2022-09-24T00:19:00;99436.88;;;6.82;100.00
21545;BME280;10933;50.754;11.508;2022-09-24T00:21:29;99424.97;;;6.78;100.00
21545;BME280;10933;50.754;11.508;2022-09-24T00:24:03;99426.84;;;6.77;100.00
21545;BME280;10933;50.754;11.508;2022-09-24T00:26:33;99426.50;;;6.74;100.00
21545;BME280;10933;50.754;11.508;2022-09-24T00:29:18;99437.22;;;6.74;100.00
21545;BME280;10933;50.754;11.508;2022-09-24T00:31:45;99427.50;;;6.73;100.00
21545;BME280;10933;50.754;11.508;2022-09-24T00:34:32;99425.88;;;6.72;100.00
21545;BME280;10933;50.754;11.508;2022-09-24T00:36:58;99427.16;;;6.69;100.00
21545;BME280;10933;50.754;11.508;2022-09-24T00:39:24;99426.00;;;6.65;100.00
21545;BME280;10933;50.754;11.508;2022-09-24T00:41:51;99422.97;;;6.62;100.00
21545;BME280;10933;50.754;11.508;2022-09-24T00:49:39;99409.19;;;6.28;100.00
21545;BME280;10933;50.754;11.508;2022-09-24T00:52:12;99408.44;;;6.21;100.00
21545;BME280;10933;50.754;11.508;2022-09-24T00:57:59;99395.75;;;6.16;100.00
21545;BME280;10933;50.754;11.508;2022-09-24T01:00:30;99389.00;;;5.96;100.00
21545;BME280;10933;50.754;11.508;2022-09-24T01:03:07;99397.78;;;5.84;100.00
21545;BME280;10933;50.754;11.508;2022-09-24T01:05:36;99393.25;;;5.85;100.00
21545;BME280;10933;50.754;11.508;2022-09-24T01:08:02;99395.38;;;5.76;100.00
21545;BME280;10933;50.754;11.508;2022-09-24T01:33:21;99398.50;;;5.55;100.00
21545;BME280;10933;50.754;11.508;2022-09-24T01:36:08;99390.31;;;5.50;100.00
21545;BME280;10933;50.754;11.508;2022-09-24T01:38:42;99383.63;;;5.41;100.00
21545;BME280;10933;50.754;11.508;2022-09-24T01:41:39;99381.75;;;5.41;100.00
21545;BME280;10933;50.754;11.508;2022-09-24T01:44:16;99394.41;;;5.52;100.00
21545;BME280;10933;50.754;11.508;2022-09-24T01:46:45;99395.53;;;5.63;100.00
21545;BME280;10933;50.754;11.508;2022-09-24T01:49:12;99390.53;;;5.67;100.00
21545;BME280;10933;50.754;11.508;2022-09-24T01:51:44;99383.56;;;5.66;100.00
21545;BME280;10933;50.754;11.508;2022-09-24T01:54:17;99378.88;;;5.61;100.00
21545;BME280;10933;50.754;11.508;2022-09-24T01:57:08;99380.28;;;5.64;100.00
21545;BME280;10933;50.754;11.508;2022-09-24T01:59:58;99377.63;;;5.64;100.00
21545;BME280;10933;50.754;11.508;2022-09-24T02:05:21;99374.56;;;5.60;100.00
21545;BME280;10933;50.754;11.508;2022-09-24T02:13:38;99378.00;;;5.49;100.00
21545;BME280;10933;50.754;11.508;2022-09-24T02:16:11;99375.31;;;5.49;100.00
21545;BME280;10933;50.754;11.508;2022-09-24T02:18:43;99363.25;;;5.40;100.00
21545;BME280;10933;50.754;11.508;2022-09-24T02:21:16;99364.59;;;5.30;100.00
21545;BME280;10933;50.754;11.508;2022-09-24T02:24:19;99357.22;;;5.26;100.00
21545;BME280;10933;50.754;11.508;2022-09-24T02:26:48;99361.81;;;5.19;100.00
21545;BME280;10933;50.754;11.508;2022-09-24T02:29:16;99357.28;;;5.19;100.00
21545;BME280;10933;50.754;11.508;2022-09-24T02:31:48;99362.47;;;5.14;100.00
21545;BME280;10933;50.754;11.508;2022-09-24T02:34:35;99360.97;;;5.00;100.00
21545;BME280;10933;50.754;11.508;2022-09-24T02:37:09;99355.56;;;4.82;100.00
21545;BME280;10933;50.754;11.508;2022-09-24T02:42:47;99354.44;;;4.96;100.00
21545;BME280;10933;50.754;11.508;2022-09-24T02:45:15;99350.91;;;4.95;100.00
21545;BME280;10933;50.754;11.508;2022-09-24T02:47:48;99350.09;;;4.95;100.00
21545;BME280;10933;50.754;11.508;2022-09-24T02:50:14;99349.81;;;4.85;100.00
21545;BME280;10933;50.754;11.508;2022-09-24T02:52:40;99355.16;;;4.85;100.00
21545;BME280;10933;50.754;11.508;2022-09-24T02:55:07;99348.59;;;4.81;100.00
21545;BME280;10933;50.754;11.508;2022-09-24T02:57:43;99340.41;;;4.76;100.00
21545;BME280;10933;50.754;11.508;2022-09-24T03:00:29;99331.34;;;4.77;100.00
21545;BME280;10933;50.754;11.508;2022-09-24T03:02:56;99334.38;;;4.62;100.00
21545;BME280;10933;50.754;11.508;2022-09-24T03:05:22;99326.91;;;4.70;100.00
21545;BME280;10933;50.754;11.508;2022-09-24T03:07:48;99328.09;;;4.75;100.00
21545;BME280;10933;50.754;11.508;2022-09-24T03:10:17;99323.19;;;4.71;100.00
21545;BME280;10933;50.754;11.508;2022-09-24T03:12:44;99309.22;;;4.69;100.00
21545;BME280;10933;50.754;11.508;2022-09-24T03:15:10;99314.97;;;4.73;100.00
21545;BME280;10933;50.754;11.508;2022-09-24T03:17:40;99313.25;;;4.79;100.00
21545;BME280;10933;50.754;11.508;2022-09-24T03:20:14;99312.28;;;4.73;100.00
21545;BME280;10933;50.754;11.508;2022-09-24T03:22:41;99303.75;;;4.83;100.00
21545;BME280;10933;50.754;11.508;2022-09-24T03:25:32;99291.53;;;4.68;100.00
21545;BME280;10933;50.754;11.508;2022-09-24T03:28:14;99299.41;;;4.63;100.00
21545;BME280;10933;50.754;11.508;2022-09-24T03:30:49;99307.56;;;4.68;100.00
21545;BME280;10933;50.754;11.508;2022-09-24T03:33:30;99321.16;;;4.67;100.00
21545;BME280;10933;50.754;11.508;2022-09-24T03:38:39;99309.16;;;4.76;100.00
21545;BME280;10933;50.754;11.508;2022-09-24T03:41:06;99312.97;;;4.87;100.00
21545;BME280;10933;50.754;11.508;2022-09-24T03:43:33;99313.50;;;4.95;100.00
21545;BME280;10933;50.754;11.508;2022-09-24T03:46:00;99312.09;;;4.93;100.00
21545;BME280;10933;50.754;11.508;2022-09-24T03:48:27;99313.50;;;4.95;100.00
21545;BME280;10933;50.754;11.508;2022-09-24T03:50:55;99308.59;;;4.92;100.00
21545;BME280;10933;50.754;11.508;2022-09-24T03:53:22;99311.56;;;4.84;100.00
21545;BME280;10933;50.754;11.508;2022-09-24T03:55:55;99309.09;;;4.83;100.00
21545;BME280;10933;50.754;11.508;2022-09-24T03:58:24;99308.91;;;4.84;100.00
21545;BME280;10933;50.754;11.508;2022-09-24T04:00:54;99310.91;;;4.89;100.00
21545;BME280;10933;50.754;11.508;2022-09-24T04:03:35;99311.81;;;5.01;100.00
21545;BME280;10933;50.754;11.508;2022-09-24T04:06:06;99310.28;;;5.12;100.00
21545;BME280;10933;50.754;11.508;2022-09-24T04:08:33;99308.31;;;5.00;100.00
21545;BME280;10933;50.754;11.508;2022-09-24T04:10:59;99301.50;;;5.05;100.00
21545;BME280;10933;50.754;11.508;2022-09-24T04:13:26;99295.91;;;5.06;100.00
21545;BME280;10933;50.754;11.508;2022-09-24T04:15:55;99296.63;;;4.95;100.00
21545;BME280;10933;50.754;11.508;2022-09-24T04:19:13;99302.88;;;4.89;100.00
21545;BME280;10933;50.754;11.508;2022-09-24T04:21:44;99296.06;;;4.93;100.00
21545;BME280;10933;50.754;11.508;2022-09-24T04:24:11;99285.66;;;4.85;100.00
21545;BME280;10933;50.754;11.508;2022-09-24T04:26:43;99282.91;;;4.73;100.00
21545;BME280;10933;50.754;11.508;2022-09-24T04:29:10;99288.94;;;4.87;100.00
21545;BME280;10933;50.754;11.508;2022-09-24T04:31:38;99298.72;;;4.93;100.00
21545;BME280;10933;50.754;11.508;2022-09-24T04:34:09;99304.84;;;5.00;100.00
21545;BME280;10933;50.754;11.508;2022-09-24T04:36:35;99311.00;;;5.00;100.00
21545;BME280;10933;50.754;11.508;2022-09-24T04:39:01;99309.97;;;5.01;100.00
21545;BME280;10933;50.754;11.508;2022-09-24T04:41:28;99311.38;;;5.04;100.00
21545;BME280;10933;50.754;11.508;2022-09-24T04:43:57;99311.97;;;5.06;100.00
21545;BME280;10933;50.754;11.508;2022-09-24T04:46:34;99313.00;;;5.05;100.00
21545;BME280;10933;50.754;11.508;2022-09-24T04:49:25;99318.34;;;5.05;100.00
21545;BME280;10933;50.754;11.508;2022-09-24T04:51:52;99311.53;;;5.09;100.00
21545;BME280;10933;50.754;11.508;2022-09-24T04:54:18;99306.78;;;5.11;100.00
21545;BME280;10933;50.754;11.508;2022-09-24T04:56:45;99311.53;;;5.09;100.00
21545;BME280;10933;50.754;11.508;2022-09-24T04:59:11;99317.63;;;5.16;100.00
21545;BME280;10933;50.754;11.508;2022-09-24T05:01:37;99323.78;;;5.17;100.00
21545;BME280;10933;50.754;11.508;2022-09-24T05:04:04;99314.50;;;5.19;100.00
21545;BME280;10933;50.754;11.508;2022-09-24T05:06:31;99324.78;;;5.22;100.00
21545;BME280;10933;50.754;11.508;2022-09-24T05:08:58;99323.97;;;5.22;100.00
21545;BME280;10933;50.754;11.508;2022-09-24T05:11:24;99313.63;;;5.25;100.00
21545;BME280;10933;50.754;11.508;2022-09-24T05:13:52;99314.81;;;5.29;100.00
21545;BME280;10933;50.754;11.508;2022-09-24T05:16:19;99312.66;;;5.38;100.00
21545;BME280;10933;50.754;11.508;2022-09-24T05:18:45;99317.34;;;5.43;100.00
21545;BME280;10933;50.754;11.508;2022-09-24T05:21:11;99310.94;;;5.44;100.00
21545;BME280;10933;50.754;11.508;2022-09-24T05:23:38;99308.44;;;5.49;100.00
21545;BME280;10933;50.754;11.508;2022-09-24T05:26:04;99319.25;;;5.54;100.00
21545;BME280;10933;50.754;11.508;2022-09-24T05:28:49;99316.75;;;5.59;100.00
21545;BME280;10933;50.754;11.508;2022-09-24T05:31:17;99315.47;;;5.61;100.00
21545;BME280;10933;50.754;11.508;2022-09-24T05:33:43;99320.75;;;5.68;100.00
21545;BME280;10933;50.754;11.508;2022-09-24T05:36:10;99314.81;;;5.66;100.00
21545;BME280;10933;50.754;11.508;2022-09-24T05:38:43;99319.09;;;5.67;100.00
21545;BME280;10933;50.754;11.508;2022-09-24T05:41:09;99318.75;;;5.64;100.00
21545;BME280;10933;50.754;11.508;2022-09-24T05:43:36;99312.00;;;5.61;100.00
21545;BME280;10933;50.754;11.508;2022-09-24T05:46:03;99312.72;;;5.68;100.00
21545;BME280;10933;50.754;11.508;2022-09-24T05:48:29;99318.34;;;5.78;100.00
21545;BME280;10933;50.754;11.508;2022-09-24T05:50:55;99318.22;;;5.92;100.00
21545;BME280;10933;50.754;11.508;2022-09-24T05:53:22;99315.06;;;5.95;100.00
21545;BME280;10933;50.754;11.508;2022-09-24T05:55:49;99316.13;;;5.94;100.00
21545;BME280;10933;50.754;11.508;2022-09-24T05:58:15;99321.16;;;6.02;100.00
21545;BME280;10933;50.754;11.508;2022-09-24T06:01:11;99316.53;;;6.09;100.00
21545;BME280;10933;50.754;11.508;2022-09-24T06:03:37;99314.66;;;6.09;100.00
21545;BME280;10933;50.754;11.508;2022-09-24T06:06:03;99319.94;;;6.16;100.00
21545;BME280;10933;50.754;11.508;2022-09-24T06:08:31;99309.81;;;6.18;100.00
21545;BME280;10933;50.754;11.508;2022-09-24T06:10:59;99307.41;;;6.28;100.00
21545;BME280;10933;50.754;11.508;2022-09-24T06:13:30;99319.31;;;6.44;100.00
21545;BME280;10933;50.754;11.508;2022-09-24T06:16:05;99317.59;;;6.49;100.00
21545;BME280;10933;50.754;11.508;2022-09-24T06:18:53;99323.81;;;6.32;100.00
21545;BME280;10933;50.754;11.508;2022-09-24T06:21:19;99324.91;;;6.42;100.00
21545;BME280;10933;50.754;11.508;2022-09-24T06:23:58;99319.66;;;6.47;100.00
21545;BME280;10933;50.754;11.508;2022-09-24T06:26:33;99318.66;;;6.48;100.00
21545;BME280;10933;50.754;11.508;2022-09-24T06:29:01;99313.31;;;6.72;100.00
21545;BME280;10933;50.754;11.508;2022-09-24T06:31:27;99313.69;;;6.87;100.00
21545;BME280;10933;50.754;11.508;2022-09-24T06:33:53;99310.53;;;6.90;100.00
21545;BME280;10933;50.754;11.508;2022-09-24T06:36:20;99308.06;;;6.77;100.00
21545;BME280;10933;50.754;11.508;2022-09-24T06:38:50;99299.47;;;6.87;100.00
21545;BME280;10933;50.754;11.508;2022-09-24T06:41:16;99293.09;;;6.46;100.00
21545;BME280;10933;50.754;11.508;2022-09-24T06:43:47;99297.22;;;6.72;100.00
21545;BME280;10933;50.754;11.508;2022-09-24T06:46:14;99295.03;;;7.04;100.00
21545;BME280;10933;50.754;11.508;2022-09-24T06:48:41;99299.66;;;6.85;100.00
21545;BME280;10933;50.754;11.508;2022-09-24T06:51:07;99292.47;;;6.74;100.00
21545;BME280;10933;50.754;11.508;2022-09-24T06:53:50;99295.50;;;6.77;100.00
21545;BME280;10933;50.754;11.508;2022-09-24T06:56:27;99289.09;;;6.90;100.00
21545;BME280;10933;50.754;11.508;2022-09-24T06:59:22;99292.91;;;7.06;100.00
21545;BME280;10933;50.754;11.508;2022-09-24T07:02:00;99296.16;;;7.20;100.00
21545;BME280;10933;50.754;11.508;2022-09-24T07:04:37;99296.75;;;6.98;100.00
21545;BME280;10933;50.754;11.508;2022-09-24T07:07:04;99299.31;;;7.40;100.00
21545;BME280;10933;50.754;11.508;2022-09-24T07:10:09;99303.00;;;7.91;100.00
21545;BME280;10933;50.754;11.508;2022-09-24T07:12:36;99312.75;;;7.68;100.00
21545;BME280;10933;50.754;11.508;2022-09-24T07:15:05;99309.31;;;7.85;100.00
21545;BME280;10933;50.754;11.508;2022-09-24T07:17:31;99315.38;;;8.20;100.00
21545;BME280;10933;50.754;11.508;2022-09-24T07:19:58;99309.97;;;8.49;100.00
21545;BME280;10933;50.754;11.508;2022-09-24T07:22:24;99307.72;;;8.74;100.00
21545;BME280;10933;50.754;11.508;2022-09-24T07:24:50;99303.22;;;8.63;100.00
21545;BME280;10933;50.754;11.508;2022-09-24T07:27:20;99314.88;;;8.23;100.00
21545;BME280;10933;50.754;11.508;2022-09-24T07:29:47;99308.06;;;8.33;100.00
21545;BME280;10933;50.754;11.508;2022-09-24T07:32:15;99306.44;;;8.32;100.00
21545;BME280;10933;50.754;11.508;2022-09-24T07:34:45;99307.63;;;8.69;100.00
21545;BME280;10933;50.754;11.508;2022-09-24T07:37:11;99300.78;;;8.45;100.00
21545;BME280;10933;50.754;11.508;2022-09-24T07:39:38;99306.50;;;8.82;100.00
21545;BME280;10933;50.754;11.508;2022-09-24T07:42:05;99302.22;;;10.98;100.00
21545;BME280;10933;50.754;11.508;2022-09-24T07:44:32;99282.75;;;13.28;100.00
21545;BME280;10933;50.754;11.508;2022-09-24T07:46:58;99281.97;;;13.07;100.00
21545;BME280;10933;50.754;11.508;2022-09-24T07:49:24;99282.19;;;14.45;100.00
21545;BME280;10933;50.754;11.508;2022-09-24T07:51:51;99285.44;;;14.81;100.00
21545;BME280;10933;50.754;11.508;2022-09-24T07:54:17;99290.16;;;14.70;100.00
21545;BME280;10933;50.754;11.508;2022-09-24T07:56:44;99286.13;;;14.24;100.00
21545;BME280;10933;50.754;11.508;2022-09-24T07:59:10;99279.03;;;12.63;100.00
21545;BME280;10933;50.754;11.508;2022-09-24T08:01:36;99276.81;;;13.06;100.00
21545;BME280;10933;50.754;11.508;2022-09-24T08:04:03;99281.19;;;15.28;100.00
21545;BME280;10933;50.754;11.508;2022-09-24T08:06:29;99275.16;;;13.95;100.00
21545;BME280;10933;50.754;11.508;2022-09-24T08:08:59;99273.47;;;13.60;100.00
21545;BME280;10933;50.754;11.508;2022-09-24T08:11:25;99269.19;;;13.38;100.00
21545;BME280;10933;50.754;11.508;2022-09-24T08:13:51;99276.13;;;13.65;100.00
21545;BME280;10933;50.754;11.508;2022-09-24T08:16:18;99279.22;;;13.97;100.00
21545;BME280;10933;50.754;11.508;2022-09-24T08:18:46;99274.41;;;13.89;100.00
21545;BME280;10933;50.754;11.508;2022-09-24T08:21:12;99272.41;;;13.50;100.00
21545;BME280;10933;50.754;11.508;2022-09-24T08:23:41;99277.63;;;15.04;100.00
21545;BME280;10933;50.754;11.508;2022-09-24T08:26:09;99277.16;;;14.96;100.00
21545;BME280;10933;50.754;11.508;2022-09-24T08:28:36;99277.50;;;15.91;100.00
21545;BME280;10933;50.754;11.508;2022-09-24T08:31:04;99279.25;;;19.47;100.00
21545;BME280;10933;50.754;11.508;2022-09-24T08:33:34;99280.88;;;20.14;98.82
21545;BME280;10933;50.754;11.508;2022-09-24T08:36:03;99272.16;;;15.09;100.00
21545;BME280;10933;50.754;11.508;2022-09-24T08:38:29;99269.00;;;16.48;100.00
21545;BME280;10933;50.754;11.508;2022-09-24T08:46:56;99280.59;;;19.58;85.98
21545;BME280;10933;50.754;11.508;2022-09-24T08:49:47;99274.22;;;19.40;100.00
21545;BME280;10933;50.754;11.508;2022-09-24T08:55:17;99277.00;;;23.03;69.24
21545;BME280;10933;50.754;11.508;2022-09-24T09:00:40;99264.34;;;21.56;78.39
21545;BME280;10933;50.754;11.508;2022-09-24T09:09:24;99274.19;;;24.09;54.96
21545;BME280;10933;50.754;11.508;2022-09-24T09:12:02;99258.16;;;23.74;58.22
21545;BME280;10933;50.754;11.508;2022-09-24T09:17:08;99245.28;;;20.22;93.49
21545;BME280;10933;50.754;11.508;2022-09-24T09:19:38;99264.38;;;21.00;65.40
21545;BME280;10933;50.754;11.508;2022-09-24T09:22:14;99250.00;;;22.51;65.47
21545;BME280;10933;50.754;11.508;2022-09-24T09:24:51;99251.41;;;21.27;72.94
21545;BME280;10933;50.754;11.508;2022-09-24T09:27:18;99251.84;;;23.25;69.25
21545;BME280;10933;50.754;11.508;2022-09-24T09:29:55;99260.06;;;24.11;60.92
21545;BME280;10933;50.754;11.508;2022-09-24T09:35:28;99253.19;;;28.10;46.57
21545;BME280;10933;50.754;11.508;2022-09-24T09:40:40;99229.94;;;21.88;69.54
21545;BME280;10933;50.754;11.508;2022-09-24T09:43:11;99234.16;;;20.53;83.86
21545;BME280;10933;50.754;11.508;2022-09-24T09:48:55;99240.34;;;23.35;63.69
21545;BME280;10933;50.754;11.508;2022-09-24T09:51:25;99242.69;;;20.69;68.89
21545;BME280;10933;50.754;11.508;2022-09-24T09:54:01;99234.00;;;20.59;76.45
21545;BME280;10933;50.754;11.508;2022-09-24T09:56:30;99242.94;;;20.94;81.02
21545;BME280;10933;50.754;11.508;2022-09-24T09:59:05;99239.84;;;21.51;73.64
21545;BME280;10933;50.754;11.508;2022-09-24T10:01:34;99245.31;;;24.87;58.00
21545;BME280;10933;50.754;11.508;2022-09-24T10:04:02;99247.72;;;23.56;56.20
21545;BME280;10933;50.754;11.508;2022-09-24T10:06:34;99249.19;;;25.77;51.42
21545;BME280;10933;50.754;11.508;2022-09-24T10:09:18;99252.13;;;25.52;49.21
21545;BME280;10933;50.754;11.508;2022-09-24T10:11:47;99240.69;;;24.47;52.87
21545;BME280;10933;50.754;11.508;2022-09-24T10:14:15;99236.31;;;22.42;55.49
21545;BME280;10933;50.754;11.508;2022-09-24T10:16:46;99229.53;;;21.09;60.20
21545;BME280;10933;50.754;11.508;2022-09-24T10:19:22;99227.66;;;22.85;59.06
21545;BME280;10933;50.754;11.508;2022-09-24T10:21:50;99217.53;;;22.11;59.39
21545;BME280;10933;50.754;11.508;2022-09-24T10:24:20;99227.13;;;26.70;47.08
21545;BME280;10933;50.754;11.508;2022-09-24T10:26:48;99213.78;;;26.18;48.76
21545;BME280;10933;50.754;11.508;2022-09-24T10:32:05;99210.78;;;23.44;51.95
21545;BME280;10933;50.754;11.508;2022-09-24T10:34:32;99198.72;;;24.14;51.48
21545;BME280;10933;50.754;11.508;2022-09-24T10:37:03;99200.66;;;25.60;49.53
21545;BME280;10933;50.754;11.508;2022-09-24T10:39:37;99201.91;;;25.00;48.59
21545;BME280;10933;50.754;11.508;2022-09-24T10:42:03;99206.81;;;25.38;47.53
21545;BME280;10933;50.754;11.508;2022-09-24T10:44:35;99197.03;;;21.29;54.69
21545;BME280;10933;50.754;11.508;2022-09-24T11:00:18;99191.28;;;22.35;58.40
21545;BME280;10933;50.754;11.508;2022-09-24T11:05:23;99188.97;;;23.03;59.00
21545;BME280;10933;50.754;11.508;2022-09-24T11:08:58;99191.16;;;24.11;56.90
21545;BME280;10933;50.754;11.508;2022-09-24T11:20:08;99178.91;;;22.28;56.57
21545;BME280;10933;50.754;11.508;2022-09-24T11:31:40;99176.00;;;24.17;52.63
21545;BME280;10933;50.754;11.508;2022-09-24T11:42:31;99161.72;;;24.27;53.29
21545;BME280;10933;50.754;11.508;2022-09-24T11:48:15;99158.50;;;24.25;50.14
21545;BME280;10933;50.754;11.508;2022-09-24T11:53:44;99153.56;;;22.56;50.65
21545;BME280;10933;50.754;11.508;2022-09-24T11:56:26;99148.38;;;23.48;51.40
21545;BME280;10933;50.754;11.508;2022-09-24T12:02:19;99145.13;;;24.11;50.41
21545;BME280;10933;50.754;11.508;2022-09-24T12:04:54;99145.47;;;25.99;42.51
21545;BME280;10933;50.754;11.508;2022-09-24T12:07:35;99143.59;;;27.33;45.09
21545;BME280;10933;50.754;11.508;2022-09-24T12:12:48;99141.03;;;23.53;51.41
21545;BME280;10933;50.754;11.508;2022-09-24T12:15:26;99137.50;;;23.40;48.13
21545;BME280;10933;50.754;11.508;2022-09-24T12:18:10;99143.28;;;27.65;40.73
21545;BME280;10933;50.754;11.508;2022-09-24T12:20:58;99145.19;;;27.34;40.41
21545;BME280;10933;50.754;11.508;2022-09-24T12:23:29;99141.94;;;27.06;41.35
21545;BME280;10933;50.754;11.508;2022-09-24T12:25:59;99126.53;;;26.39;44.93
21545;BME280;10933;50.754;11.508;2022-09-24T12:28:35;99134.41;;;23.29;47.81
21545;BME280;10933;50.754;11.508;2022-09-24T12:31:28;99122.06;;;21.07;53.09
21545;BME280;10933;50.754;11.508;2022-09-24T12:34:59;99128.00;;;24.18;50.93
21545;BME280;10933;50.754;11.508;2022-09-24T12:37:35;99131.34;;;22.49;53.12
21545;BME280;10933;50.754;11.508;2022-09-24T12:40:30;99125.44;;;21.42;55.31
21545;BME280;10933;50.754;11.508;2022-09-24T12:42:52;99125.47;;;21.04;54.55
21545;BME280;10933;50.754;11.508;2022-09-24T12:45:22;99132.78;;;23.53;52.79
21545;BME280;10933;50.754;11.508;2022-09-24T12:47:54;99121.22;;;21.45;56.32
21545;BME280;10933;50.754;11.508;2022-09-24T12:50:27;99121.50;;;22.60;51.70
21545;BME280;10933;50.754;11.508;2022-09-24T12:52:54;99115.41;;;21.47;58.97
21545;BME280;10933;50.754;11.508;2022-09-24T12:55:29;99106.38;;;21.25;58.87
21545;BME280;10933;50.754;11.508;2022-09-24T12:58:06;99108.22;;;22.17;55.85
21545;BME280;10933;50.754;11.508;2022-09-24T13:00:50;99102.16;;;21.69;55.63
21545;BME280;10933;50.754;11.508;2022-09-24T13:05:59;99105.16;;;26.36;42.49
21545;BME280;10933;50.754;11.508;2022-09-24T13:08:35;99099.94;;;21.42;56.04
21545;BME280;10933;50.754;11.508;2022-09-24T13:11:04;99093.34;;;21.13;58.09
21545;BME280;10933;50.754;11.508;2022-09-24T13:14:19;99092.06;;;21.40;60.14
21545;BME280;10933;50.754;11.508;2022-09-24T13:16:47;99102.94;;;23.67;49.60
21545;BME280;10933;50.754;11.508;2022-09-24T13:19:38;99091.09;;;22.89;52.90
21545;BME280;10933;50.754;11.508;2022-09-24T13:27:40;99098.69;;;23.57;50.81
21545;BME280;10933;50.754;11.508;2022-09-24T13:30:25;99092.69;;;23.15;49.45
21545;BME280;10933;50.754;11.508;2022-09-24T13:33:12;99093.56;;;22.82;49.80
21545;BME280;10933;50.754;11.508;2022-09-24T13:35:44;99104.72;;;24.59;44.56
21545;BME280;10933;50.754;11.508;2022-09-24T13:44:19;99088.91;;;22.95;50.11
21545;BME280;10933;50.754;11.508;2022-09-24T13:46:50;99090.81;;;21.92;50.96
21545;BME280;10933;50.754;11.508;2022-09-24T13:49:21;99088.97;;;21.42;54.07
21545;BME280;10933;50.754;11.508;2022-09-24T13:52:14;99085.28;;;21.59;52.62
21545;BME280;10933;50.754;11.508;2022-09-24T13:54:50;99089.75;;;23.48;52.41
21545;BME280;10933;50.754;11.508;2022-09-24T13:57:26;99089.34;;;24.14;49.28
21545;BME280;10933;50.754;11.508;2022-09-24T14:00:15;99089.84;;;23.76;48.92
21545;BME280;10933;50.754;11.508;2022-09-24T14:05:28;99075.72;;;21.86;51.91
21545;BME280;10933;50.754;11.508;2022-09-24T14:08:07;99071.16;;;21.90;52.36
21545;BME280;10933;50.754;11.508;2022-09-24T14:10:36;99068.78;;;21.17;54.93
21545;BME280;10933;50.754;11.508;2022-09-24T14:13:18;99072.63;;;21.87;54.63
21545;BME280;10933;50.754;11.508;2022-09-24T14:18:18;99072.91;;;21.53;55.05
21545;BME280;10933;50.754;11.508;2022-09-24T14:20:51;99065.34;;;20.99;55.70
21545;BME280;10933;50.754;11.508;2022-09-24T14:23:21;99069.16;;;20.77;56.84
21545;BME280;10933;50.754;11.508;2022-09-24T14:25:49;99070.28;;;20.85;59.67
21545;BME280;10933;50.754;11.508;2022-09-24T14:28:17;99061.88;;;21.61;61.49
21545;BME280;10933;50.754;11.508;2022-09-24T14:30:52;99074.09;;;22.51;60.72
21545;BME280;10933;50.754;11.508;2022-09-24T14:33:25;99074.56;;;22.65;53.57
21545;BME280;10933;50.754;11.508;2022-09-24T14:35:55;99076.81;;;22.39;54.57
21545;BME280;10933;50.754;11.508;2022-09-24T14:38:27;99076.66;;;22.93;53.06
21545;BME280;10933;50.754;11.508;2022-09-24T14:44:06;99075.16;;;23.07;52.63
21545;BME280;10933;50.754;11.508;2022-09-24T14:46:48;99079.41;;;23.69;51.83
21545;BME280;10933;50.754;11.508;2022-09-24T14:49:23;99077.81;;;22.01;51.05
21545;BME280;10933;50.754;11.508;2022-09-24T14:51:59;99080.19;;;22.11;53.97
21545;BME280;10933;50.754;11.508;2022-09-24T14:54:35;99077.25;;;22.28;53.28
21545;BME280;10933;50.754;11.508;2022-09-24T14:57:34;99075.41;;;22.32;53.56
21545;BME280;10933;50.754;11.508;2022-09-24T15:00:00;99072.34;;;22.46;50.78
21545;BME280;10933;50.754;11.508;2022-09-24T15:02:33;99072.44;;;21.00;52.95
21545;BME280;10933;50.754;11.508;2022-09-24T15:05:04;99073.72;;;21.74;51.92
21545;BME280;10933;50.754;11.508;2022-09-24T15:07:32;99070.63;;;21.04;52.67
21545;BME280;10933;50.754;11.508;2022-09-24T15:10:00;99069.47;;;20.29;55.66
21545;BME280;10933;50.754;11.508;2022-09-24T15:12:30;99066.19;;;19.37;62.92
21545;BME280;10933;50.754;11.508;2022-09-24T15:17:45;99062.13;;;19.17;96.88
21545;BME280;10933;50.754;11.508;2022-09-24T15:20:12;99064.78;;;18.43;99.97
21545;BME280;10933;50.754;11.508;2022-09-24T15:22:38;99061.44;;;18.23;100.00
21545;BME280;10933;50.754;11.508;2022-09-24T15:25:05;99064.75;;;18.12;100.00
21545;BME280;10933;50.754;11.508;2022-09-24T15:27:37;99068.44;;;18.07;100.00
21545;BME280;10933;50.754;11.508;2022-09-24T15:30:05;99067.31;;;18.08;100.00
21545;BME280;10933;50.754;11.508;2022-09-24T15:32:33;99069.16;;;18.21;100.00
21545;BME280;10933;50.754;11.508;2022-09-24T15:35:04;99075.56;;;18.17;100.00
21545;BME280;10933;50.754;11.508;2022-09-24T15:37:38;99080.78;;;18.36;100.00
21545;BME280;10933;50.754;11.508;2022-09-24T15:42:45;99077.75;;;18.37;100.00
21545;BME280;10933;50.754;11.508;2022-09-24T15:45:19;99077.38;;;17.99;100.00
21545;BME280;10933;50.754;11.508;2022-09-24T15:47:49;99073.34;;;17.97;100.00
21545;BME280;10933;50.754;11.508;2022-09-24T15:50:16;99070.75;;;17.91;100.00
21545;BME280;10933;50.754;11.508;2022-09-24T15:52:59;99069.91;;;17.91;100.00
21545;BME280;10933;50.754;11.508;2022-09-24T15:55:25;99070.78;;;17.78;100.00